createdAt,value
2023-06-23T00:00:26.556Z,8.10
2023-06-23T00:02:54.121Z,8.10
2023-06-23T00:05:21.693Z,7.70
2023-06-23T00:07:49.129Z,7.60
2023-06-23T00:10:16.571Z,8.80
2023-06-23T00:12:44.163Z,7.30
2023-06-23T00:15:13.775Z,7.00
2023-06-23T00:17:43.151Z,7.10
2023-06-23T00:20:20.591Z,7.10
2023-06-23T00:22:48.063Z,7.90
2023-06-23T00:25:15.470Z,7.80
2023-06-23T00:27:46.438Z,7.70
2023-06-23T00:30:14.789Z,6.30
2023-06-23T00:32:42.629Z,6.60
2023-06-23T00:35:10.042Z,8.00
2023-06-23T00:37:40.389Z,7.30
2023-06-23T00:40:14.858Z,7.60
2023-06-23T00:42:54.273Z,7.80
2023-06-23T00:45:25.403Z,7.60
2023-06-23T00:47:52.909Z,8.20
2023-06-23T00:50:21.618Z,8.70
2023-06-23T00:52:52.724Z,9.40
2023-06-23T00:55:24.746Z,8.70
2023-06-23T00:57:57.187Z,9.10
2023-06-23T01:00:29.286Z,9.50
2023-06-23T01:03:01.332Z,10.80
2023-06-23T01:05:32.397Z,10.50
2023-06-23T01:08:15.461Z,11.30
2023-06-23T01:11:02.367Z,12.50
2023-06-23T01:13:39.034Z,12.70
2023-06-23T01:16:32.651Z,10.90
2023-06-23T01:19:25.655Z,10.60
2023-06-23T01:22:13.382Z,10.80
2023-06-23T01:25:08.981Z,10.30
2023-06-23T01:27:51.962Z,10.00
2023-06-23T01:30:19.377Z,10.30
2023-06-23T01:32:52.107Z,10.40
2023-06-23T01:35:26.974Z,11.80
2023-06-23T01:37:59.021Z,10.90
2023-06-23T01:40:26.388Z,11.70
2023-06-23T01:42:58.581Z,12.10
2023-06-23T01:45:30.173Z,12.50
2023-06-23T01:48:00.604Z,13.90
2023-06-23T01:50:28.357Z,15.00
2023-06-23T01:52:55.871Z,15.10
2023-06-23T01:56:53.251Z,14.80
2023-06-23T01:59:21.691Z,14.20
2023-06-23T02:01:49.187Z,12.80
2023-06-23T02:04:16.962Z,14.10
2023-06-23T02:06:46.934Z,14.00
2023-06-23T02:09:34.660Z,14.10
2023-06-23T02:12:04.734Z,13.60
2023-06-23T02:14:32.199Z,14.60
2023-06-23T02:16:59.739Z,14.10
2023-06-23T02:19:27.571Z,14.30
2023-06-23T02:21:55.109Z,14.10
2023-06-23T02:24:22.510Z,15.00
2023-06-23T02:26:49.993Z,14.00
2023-06-23T02:29:17.438Z,14.10
2023-06-23T02:31:45.828Z,13.40
2023-06-23T02:34:14.331Z,15.80
2023-06-23T02:36:46.041Z,14.30
2023-06-23T02:39:14.740Z,14.50
2023-06-23T02:41:42.502Z,14.20
2023-06-23T02:44:15.306Z,14.20
2023-06-23T02:49:24.667Z,17.20
2023-06-23T02:51:53.788Z,17.20
2023-06-23T02:54:21.266Z,15.50
2023-06-23T02:56:48.751Z,14.40
2023-06-23T02:59:17.887Z,14.00
2023-06-23T03:01:46.399Z,14.70
2023-06-23T03:04:13.877Z,12.80
2023-06-23T03:06:42.049Z,10.40
2023-06-23T03:09:12.371Z,9.50
2023-06-23T03:11:40.107Z,8.60
2023-06-23T03:14:08.189Z,9.30
2023-06-23T03:17:01.181Z,8.80
2023-06-23T03:19:38.073Z,9.10
2023-06-23T03:22:08.386Z,8.40
2023-06-23T03:24:39.350Z,7.60
2023-06-23T03:27:10.882Z,8.90
2023-06-23T03:29:45.327Z,9.20
2023-06-23T03:32:14.390Z,8.50
2023-06-23T03:34:44.866Z,7.60
2023-06-23T03:37:12.577Z,8.30
2023-06-23T03:39:41.784Z,8.10
2023-06-23T03:42:09.727Z,8.80
2023-06-23T03:44:42.730Z,8.40
2023-06-23T03:47:15.811Z,8.30
2023-06-23T03:49:45.831Z,8.20
2023-06-23T03:52:13.673Z,9.00
2023-06-23T03:54:41.347Z,10.00
2023-06-23T03:57:10.757Z,11.20
2023-06-23T03:59:38.319Z,11.80
2023-06-23T04:02:05.784Z,12.00
2023-06-23T04:04:33.790Z,9.70
2023-06-23T04:07:01.292Z,10.30
2023-06-23T04:09:28.855Z,10.80
2023-06-23T04:11:57.007Z,9.40
2023-06-23T04:14:24.483Z,10.30
2023-06-23T04:16:51.953Z,9.50
2023-06-23T04:19:19.763Z,9.90
2023-06-23T04:21:47.338Z,8.90
2023-06-23T04:24:14.755Z,9.40
2023-06-23T04:26:47.040Z,9.40
2023-06-23T04:29:14.559Z,10.00
2023-06-23T04:31:41.999Z,9.20
2023-06-23T04:34:09.512Z,8.50
2023-06-23T04:36:42.045Z,8.90
2023-06-23T04:39:21.009Z,9.20
2023-06-23T04:41:49.858Z,9.40
2023-06-23T04:44:17.265Z,8.90
2023-06-23T04:46:44.624Z,9.60
2023-06-23T04:49:12.254Z,10.00
2023-06-23T04:51:47.505Z,9.30
2023-06-23T04:54:41.244Z,9.80
2023-06-23T04:57:17.002Z,9.20
2023-06-23T04:59:49.375Z,9.90
2023-06-23T05:02:16.866Z,9.80
2023-06-23T05:04:44.460Z,8.50
2023-06-23T05:07:13.076Z,9.40
2023-06-23T05:09:40.484Z,8.70
2023-06-23T05:12:12.535Z,9.10
2023-06-23T05:14:40.965Z,9.50
2023-06-23T05:17:11.454Z,9.80
2023-06-23T05:19:41.016Z,8.40
2023-06-23T05:22:13.146Z,7.40
2023-06-23T05:24:42.485Z,7.80
2023-06-23T05:27:10.380Z,8.40
2023-06-23T05:29:39.601Z,8.30
2023-06-23T05:32:07.735Z,8.00
2023-06-23T05:34:35.111Z,8.20
2023-06-23T05:37:03.097Z,7.30
2023-06-23T05:39:30.902Z,7.20
2023-06-23T05:41:58.479Z,8.40
2023-06-23T05:44:25.896Z,9.40
2023-06-23T05:46:54.593Z,9.10
2023-06-23T05:49:22.818Z,9.60
2023-06-23T05:51:57.430Z,10.50
2023-06-23T05:54:25.418Z,9.10
2023-06-23T05:56:55.085Z,9.70
2023-06-23T05:59:28.909Z,8.70
2023-06-23T06:02:00.453Z,9.50
2023-06-23T06:04:30.519Z,8.60
2023-06-23T06:06:58.536Z,7.60
2023-06-23T06:09:28.638Z,8.20
2023-06-23T06:11:56.697Z,7.30
2023-06-23T06:14:24.489Z,8.30
2023-06-23T06:16:51.998Z,8.20
2023-06-23T06:19:21.970Z,7.60
2023-06-23T06:21:49.554Z,7.70
2023-06-23T06:24:17.147Z,7.10
2023-06-23T06:26:44.567Z,7.90
2023-06-23T06:29:12.368Z,7.80
2023-06-23T06:31:39.911Z,7.50
2023-06-23T06:34:08.037Z,6.60
2023-06-23T06:36:36.329Z,6.80
2023-06-23T06:39:03.997Z,6.80
2023-06-23T06:41:31.659Z,6.30
2023-06-23T06:43:59.194Z,6.90
2023-06-23T06:46:28.196Z,7.30
2023-06-23T06:48:56.739Z,6.70
2023-06-23T06:51:24.267Z,6.50
2023-06-23T06:53:51.712Z,6.70
2023-06-23T06:56:19.160Z,6.30
2023-06-23T06:58:46.639Z,5.40
2023-06-23T07:01:14.513Z,6.30
2023-06-23T07:03:44.453Z,6.20
2023-06-23T07:06:15.502Z,6.70
2023-06-23T07:08:43.963Z,6.60
2023-06-23T07:11:12.198Z,6.30
2023-06-23T07:13:40.442Z,5.80
2023-06-23T07:16:07.877Z,5.80
2023-06-23T07:18:35.323Z,6.40
2023-06-23T07:21:04.527Z,5.90
2023-06-23T07:23:32.319Z,5.90
2023-06-23T07:25:59.707Z,6.20
2023-06-23T07:28:27.194Z,5.90
2023-06-23T07:30:54.647Z,5.50
2023-06-23T07:33:22.126Z,6.20
2023-06-23T07:35:49.600Z,5.50
2023-06-23T07:38:17.125Z,5.90
2023-06-23T07:40:44.868Z,6.20
2023-06-23T07:43:12.435Z,6.80
2023-06-23T07:45:40.336Z,5.70
2023-06-23T07:48:07.824Z,5.70
2023-06-23T07:50:35.393Z,6.40
2023-06-23T07:53:02.823Z,6.00
2023-06-23T07:55:30.270Z,6.10
2023-06-23T07:57:57.741Z,6.20
2023-06-23T08:00:25.180Z,6.20
2023-06-23T08:02:52.781Z,6.60
2023-06-23T08:05:23.399Z,6.00
2023-06-23T08:07:50.850Z,6.90
2023-06-23T08:10:18.279Z,7.20
2023-06-23T08:12:45.682Z,6.20
2023-06-23T08:15:13.091Z,6.60
2023-06-23T08:17:40.577Z,6.50
2023-06-23T08:20:08.625Z,6.50
2023-06-23T08:22:39.563Z,6.60
2023-06-23T08:25:07.864Z,6.10
2023-06-23T08:27:35.550Z,6.90
2023-06-23T08:30:03.186Z,6.90
2023-06-23T08:32:30.635Z,6.50
2023-06-23T08:34:58.172Z,6.40
2023-06-23T08:37:25.726Z,6.90
2023-06-23T08:39:53.102Z,7.20
2023-06-23T08:42:20.574Z,6.40
2023-06-23T08:44:48.728Z,6.60
2023-06-23T08:47:16.462Z,7.00
2023-06-23T08:49:43.948Z,6.50
2023-06-23T08:52:12.052Z,7.10
2023-06-23T08:54:39.627Z,6.30
2023-06-23T08:57:07.847Z,5.70
2023-06-23T08:59:35.451Z,6.60
2023-06-23T09:02:03.130Z,6.00
2023-06-23T09:04:30.872Z,7.10
2023-06-23T09:06:58.389Z,6.70
2023-06-23T09:09:26.768Z,6.30
2023-06-23T09:11:54.171Z,6.60
2023-06-23T09:14:21.585Z,7.00
2023-06-23T09:16:48.947Z,6.40
2023-06-23T09:19:18.646Z,6.10
2023-06-23T09:21:46.950Z,6.70
2023-06-23T09:24:14.423Z,6.90
2023-06-23T09:26:48.766Z,6.40
2023-06-23T09:29:23.869Z,6.50
2023-06-23T09:31:52.525Z,6.10
2023-06-23T09:34:27.292Z,5.90
2023-06-23T09:37:06.640Z,6.20
2023-06-23T09:39:38.357Z,6.30
2023-06-23T09:42:07.661Z,6.40
2023-06-23T09:44:39.253Z,6.80
2023-06-23T09:47:07.208Z,7.00
2023-06-23T09:49:45.142Z,6.50
2023-06-23T09:52:14.248Z,6.50
2023-06-23T09:54:42.284Z,5.70
2023-06-23T09:57:13.849Z,6.20
2023-06-23T09:59:41.991Z,5.90
2023-06-23T10:02:10.672Z,6.20
2023-06-23T10:04:38.647Z,5.70
2023-06-23T10:07:27.447Z,6.00
2023-06-23T10:10:04.744Z,6.30
2023-06-23T10:12:41.608Z,7.20
2023-06-23T10:15:10.091Z,6.50
2023-06-23T10:17:37.835Z,6.00
2023-06-23T10:20:06.670Z,6.10
2023-06-23T10:22:34.230Z,5.90
2023-06-23T10:25:01.730Z,6.10
2023-06-23T10:27:30.347Z,5.90
2023-06-23T10:29:59.575Z,5.50
2023-06-23T10:32:31.434Z,5.80
2023-06-23T10:35:00.718Z,6.00
2023-06-23T10:37:39.598Z,5.40
2023-06-23T10:40:12.257Z,5.80
2023-06-23T10:42:39.671Z,5.60
2023-06-23T10:45:09.613Z,5.80
2023-06-23T10:47:40.478Z,5.10
2023-06-23T10:50:09.505Z,5.00
2023-06-23T10:52:37.174Z,5.10
2023-06-23T10:55:35.066Z,5.10
2023-06-23T10:58:18.921Z,5.50
2023-06-23T11:00:56.135Z,5.40
2023-06-23T11:03:30.489Z,6.00
2023-06-23T11:05:59.050Z,5.50
2023-06-23T11:08:34.436Z,4.90
2023-06-23T11:11:03.030Z,5.40
2023-06-23T11:13:52.891Z,5.40
2023-06-23T11:16:28.398Z,5.10
2023-06-23T11:19:01.278Z,4.80
2023-06-23T11:21:38.816Z,5.60
2023-06-23T11:24:16.104Z,5.20
2023-06-23T11:30:19.059Z,5.00
2023-06-23T11:32:46.548Z,5.10
2023-06-23T11:35:14.007Z,5.30
2023-06-23T11:37:41.454Z,5.10
2023-06-23T11:40:10.255Z,5.20
2023-06-23T11:42:37.979Z,5.40
2023-06-23T11:45:06.014Z,5.30
2023-06-23T11:47:34.716Z,5.40
2023-06-23T11:50:04.023Z,5.80
2023-06-23T11:52:31.422Z,5.50
2023-06-23T11:54:58.953Z,5.20
2023-06-23T11:57:26.430Z,4.90
2023-06-23T11:59:54.256Z,5.30
2023-06-23T12:02:22.104Z,5.30
2023-06-23T12:04:50.937Z,5.50
2023-06-23T12:07:18.766Z,5.80
2023-06-23T12:09:47.090Z,5.50
2023-06-23T12:12:17.233Z,5.00
2023-06-23T12:14:45.644Z,5.00
2023-06-23T12:17:13.753Z,5.50
2023-06-23T12:19:44.439Z,5.30
2023-06-23T12:22:19.391Z,5.20
2023-06-23T12:24:47.595Z,6.10
2023-06-23T12:27:15.729Z,5.30
2023-06-23T12:29:43.259Z,5.90
2023-06-23T12:32:10.904Z,6.20
2023-06-23T12:34:43.760Z,5.50
2023-06-23T12:37:18.975Z,5.30
2023-06-23T12:39:53.778Z,5.90
2023-06-23T12:42:22.027Z,5.00
2023-06-23T12:44:50.504Z,5.40
2023-06-23T12:47:21.028Z,6.00
2023-06-23T12:49:48.707Z,5.50
2023-06-23T12:52:16.765Z,5.80
2023-06-23T12:54:45.002Z,5.10
2023-06-23T12:57:13.169Z,5.80
2023-06-23T12:59:40.660Z,5.00
2023-06-23T13:02:09.895Z,5.20
2023-06-23T13:04:37.939Z,5.90
2023-06-23T13:07:05.751Z,5.50
2023-06-23T13:09:33.177Z,6.10
2023-06-23T13:12:00.644Z,5.80
2023-06-23T13:14:28.210Z,5.30
2023-06-23T13:16:55.638Z,6.00
2023-06-23T13:19:23.033Z,5.20
2023-06-23T13:21:52.915Z,5.30
2023-06-23T13:24:20.438Z,5.90
2023-06-23T13:26:49.359Z,5.70
2023-06-23T13:29:18.395Z,5.30
2023-06-23T13:31:46.134Z,5.80
2023-06-23T13:34:13.862Z,5.10
2023-06-23T13:36:41.319Z,5.30
2023-06-23T13:39:08.767Z,5.80
2023-06-23T13:41:36.229Z,5.30
2023-06-23T13:44:03.693Z,5.90
2023-06-23T13:46:31.211Z,4.80
2023-06-23T13:48:58.636Z,5.80
2023-06-23T13:51:26.068Z,5.70
2023-06-23T13:53:53.487Z,5.70
2023-06-23T13:56:21.057Z,5.10
2023-06-23T13:58:48.487Z,5.40
2023-06-23T14:01:15.925Z,5.50
2023-06-23T14:03:43.543Z,5.50
2023-06-23T14:06:11.157Z,6.40
2023-06-23T14:08:39.384Z,5.60
2023-06-23T14:11:06.784Z,6.10
2023-06-23T14:14:37.390Z,5.90
2023-06-23T14:17:05.303Z,5.80
2023-06-23T14:19:32.677Z,5.50
2023-06-23T14:22:01.316Z,5.60
2023-06-23T14:24:30.907Z,5.70
2023-06-23T14:26:58.324Z,6.10
2023-06-23T14:29:25.894Z,6.10
2023-06-23T14:31:53.352Z,10.40
2023-06-23T14:34:20.845Z,7.40
2023-06-23T14:36:50.642Z,8.00
2023-06-23T14:39:18.078Z,6.10
2023-06-23T14:41:46.455Z,6.50
2023-06-23T14:44:14.008Z,6.30
2023-06-23T14:46:41.609Z,6.60
2023-06-23T14:49:09.198Z,6.60
2023-06-23T14:51:36.702Z,6.40
2023-06-23T14:54:04.244Z,7.10
2023-06-23T14:56:31.880Z,6.60
2023-06-23T14:58:59.794Z,5.80
2023-06-23T15:01:27.369Z,6.20
2023-06-23T15:03:55.771Z,6.50
2023-06-23T15:06:24.407Z,6.40
2023-06-23T15:08:51.869Z,6.10
2023-06-23T15:11:19.339Z,6.30
2023-06-23T15:13:46.822Z,6.20
2023-06-23T15:16:14.622Z,5.40
2023-06-23T15:18:42.111Z,5.80
2023-06-23T15:21:09.743Z,7.20
2023-06-23T15:23:37.738Z,6.70
2023-06-23T15:26:05.240Z,7.10
2023-06-23T15:28:32.674Z,5.80
2023-06-23T15:31:00.967Z,5.90
2023-06-23T15:33:29.377Z,5.90
2023-06-23T15:35:56.836Z,6.40
2023-06-23T15:38:27.581Z,6.10
2023-06-23T15:40:54.969Z,6.60
2023-06-23T15:43:23.576Z,6.80
2023-06-23T15:45:51.230Z,7.70
2023-06-23T15:48:20.901Z,6.80
2023-06-23T15:50:48.863Z,7.00
2023-06-23T15:53:16.598Z,6.90
2023-06-23T15:55:44.008Z,8.40
2023-06-23T15:58:11.461Z,7.40
2023-06-23T16:00:39.154Z,6.50
2023-06-23T16:03:06.821Z,7.00
2023-06-23T16:05:35.944Z,6.90
2023-06-23T16:08:04.733Z,7.00
2023-06-23T16:10:34.442Z,6.90
2023-06-23T16:13:02.010Z,8.20
2023-06-23T16:15:29.544Z,7.40
2023-06-23T16:17:57.040Z,7.50
2023-06-23T16:20:24.465Z,7.10
2023-06-23T16:22:51.900Z,7.70
2023-06-23T16:25:19.473Z,7.80
2023-06-23T16:27:46.916Z,8.40
2023-06-23T16:30:14.547Z,7.70
2023-06-23T16:32:42.139Z,9.60
2023-06-23T16:35:09.793Z,8.80
2023-06-23T16:37:37.244Z,10.00
2023-06-23T16:40:05.375Z,9.50
2023-06-23T16:42:32.826Z,10.00
2023-06-23T16:45:00.355Z,8.70
2023-06-23T16:47:30.018Z,8.40
2023-06-23T16:49:57.570Z,10.20
2023-06-23T16:52:25.012Z,9.40
2023-06-23T16:54:52.540Z,9.30
2023-06-23T16:57:20.211Z,9.40
2023-06-23T16:59:47.696Z,8.70
2023-06-23T17:02:20.356Z,8.40
2023-06-23T17:04:47.910Z,9.20
2023-06-23T17:07:15.374Z,9.60
2023-06-23T17:09:42.885Z,12.10
2023-06-23T17:12:17.876Z,13.10
2023-06-23T17:14:47.188Z,12.60
2023-06-23T17:17:14.595Z,12.00
2023-06-23T17:19:42.127Z,10.60
2023-06-23T17:22:09.664Z,9.10
2023-06-23T17:24:37.073Z,9.60
2023-06-23T17:27:05.272Z,9.30
2023-06-23T17:29:35.970Z,9.80
2023-06-23T17:32:03.719Z,9.40
2023-06-23T17:34:31.273Z,10.40
2023-06-23T17:36:58.758Z,11.00
2023-06-23T17:39:26.271Z,12.00
2023-06-23T17:41:53.695Z,13.70
2023-06-23T17:44:21.110Z,20.40
2023-06-23T17:46:48.535Z,23.50
2023-06-23T17:49:15.948Z,25.00
2023-06-23T17:51:43.582Z,20.80
2023-06-23T17:54:11.028Z,16.40
2023-06-23T17:56:38.503Z,14.40
2023-06-23T17:59:10.425Z,16.90
2023-06-23T18:01:38.465Z,16.90
2023-06-23T18:04:08.463Z,15.90
2023-06-23T18:06:39.467Z,14.20
2023-06-23T18:09:06.996Z,14.70
2023-06-23T18:11:34.404Z,14.40
2023-06-23T18:14:01.793Z,17.50
2023-06-23T18:16:29.673Z,13.60
2023-06-23T18:18:57.148Z,14.60
2023-06-23T18:21:26.999Z,23.50
2023-06-23T18:23:55.085Z,17.00
2023-06-23T18:26:22.525Z,19.30
2023-06-23T18:28:50.077Z,8.00
2023-06-23T18:31:17.618Z,21.00
2023-06-23T18:33:47.554Z,7.50
2023-06-23T18:36:15.426Z,5.40
2023-06-23T18:38:42.844Z,10.10
2023-06-23T18:41:10.333Z,4.20
2023-06-23T18:43:37.787Z,3.10
2023-06-23T18:46:05.346Z,3.20
2023-06-23T18:48:34.763Z,3.30
2023-06-23T18:51:02.314Z,1.50
2023-06-23T18:53:34.261Z,1.90
2023-06-23T18:56:02.464Z,1.70
